Time;durP1;ratioP1;P1;durP2;ratioP2;P2;SDS_P1;SDS_P2;PMS_P1;PMS_P2;Temp;Humidity;BMP_temperature;BMP_pressure;BME280_temperature;BME280_humidity;BME280_pressure;Samples;Min_cycle;Max_cycle;Signal;HPM_P1;HPM_P2
2022/05/11 00:01:32;;;;;;;3.13;2.50;;;18.70;99.90;;;;;;5035098;28;20807;-76
2022/05/11 00:04:00;;;;;;;2.90;2.20;;;18.60;99.90;;;;;;5037290;28;20460;-76
2022/05/11 00:06:28;;;;;;;3.97;2.20;;;18.60;99.90;;;;;;5037073;28;20847;-76
2022/05/11 00:08:58;;;;;;;2.77;2.47;;;18.70;99.90;;;;;;5031069;28;20835;-76
2022/05/11 00:11:34;;;;;;;3.37;2.00;;;18.70;99.90;;;;;;5033013;28;20603;-76
2022/05/11 00:14:07;;;;;;;3.70;2.70;;;18.80;99.90;;;;;;5033772;28;20453;-76
2022/05/11 00:16:36;;;;;;;4.70;2.83;;;18.80;99.90;;;;;;5034867;28;20451;-76
2022/05/11 00:19:05;;;;;;;4.33;2.53;;;18.80;99.90;;;;;;5035447;28;20468;-76
2022/05/11 00:21:31;;;;;;;3.30;2.40;;;18.80;99.90;;;;;;5035799;28;20823;-76
2022/05/11 00:23:58;;;;;;;2.87;2.37;;;18.70;99.90;;;;;;5040225;28;20470;-76
2022/05/11 00:26:25;;;;;;;4.43;3.03;;;18.80;99.90;;;;;;5035190;28;20590;-76
2022/05/11 00:28:54;;;;;;;3.23;2.70;;;18.80;99.90;;;;;;5032203;28;20507;-76
2022/05/11 00:31:25;;;;;;;3.93;2.33;;;18.80;99.90;;;;;;5035961;28;20473;-76
2022/05/11 00:33:58;;;;;;;5.10;2.27;;;18.60;99.90;;;;;;5035274;28;20480;-76
2022/05/11 00:36:26;;;;;;;2.80;2.10;;;18.60;99.90;;;;;;5033766;28;20459;-76
2022/05/11 00:38:52;;;;;;;3.63;2.50;;;18.50;99.90;;;;;;5031826;28;20456;-76
2022/05/11 00:41:20;;;;;;;3.63;2.30;;;18.60;99.90;;;;;;5038163;28;20472;-76
2022/05/11 00:43:57;;;;;;;5.70;2.73;;;18.60;99.90;;;;;;5029579;28;20455;-76
2022/05/11 00:46:30;;;;;;;3.37;2.67;;;18.60;99.90;;;;;;5031581;28;20489;-76
2022/05/11 00:51:56;;;;;;;3.07;2.27;;;18.30;99.90;;;;;;5032297;28;20498;-76
2022/05/11 00:54:24;;;;;;;6.50;2.40;;;18.20;99.90;;;;;;5031779;28;20461;-77
2022/05/11 00:57:02;;;;;;;6.43;2.53;;;18.20;99.90;;;;;;5036448;28;20422;-77
2022/05/11 00:59:36;;;;;;;3.73;2.17;;;18.10;99.90;;;;;;5022159;28;20468;-77
2022/05/11 01:02:06;;;;;;;2.07;1.73;;;18.10;99.90;;;;;;5024442;28;21810;-77
2022/05/11 01:04:40;;;;;;;2.47;1.90;;;18.10;99.90;;;;;;5030936;28;20467;-76
2022/05/11 01:07:13;;;;;;;2.90;1.93;;;18.00;99.90;;;;;;5031396;28;20526;-77
2022/05/11 01:09:41;;;;;;;3.60;3.30;;;18.10;99.90;;;;;;5026072;28;20460;-77
2022/05/11 01:12:14;;;;;;;6.33;2.00;;;18.10;99.90;;;;;;5031505;28;20506;-75
2022/05/11 01:14:49;;;;;;;2.40;2.00;;;18.10;99.90;;;;;;5038071;28;20487;-77
2022/05/11 01:17:15;;;;;;;2.87;2.50;;;18.10;99.90;;;;;;5031380;28;20459;-76
2022/05/11 01:19:53;;;;;;;2.10;1.90;;;18.20;99.90;;;;;;5026489;28;20850;-77
2022/05/11 01:22:26;;;;;;;2.27;1.70;;;18.10;99.90;;;;;;5028718;28;20893;-76
2022/05/11 01:24:56;;;;;;;3.20;1.70;;;18.20;99.90;;;;;;5032658;28;20935;-77
2022/05/11 01:27:33;;;;;;;3.27;2.10;;;18.20;99.90;;;;;;5034811;28;20467;-77
2022/05/11 01:30:11;;;;;;;7.77;2.13;;;18.30;99.90;;;;;;5027000;28;21734;-77
2022/05/11 01:32:41;;;;;;;2.37;1.63;;;18.30;99.90;;;;;;5028294;28;20467;-77
2022/05/11 01:35:25;;;;;;;9.73;2.13;;;18.30;99.90;;;;;;5034521;28;20581;-77
2022/05/11 01:38:05;;;;;;;2.20;1.70;;;18.40;99.90;;;;;;5029408;28;20466;-76
2022/05/11 01:40:33;;;;;;;6.17;2.00;;;18.40;99.90;;;;;;5030541;28;20490;-76
2022/05/11 01:43:04;;;;;;;2.83;1.97;;;18.50;99.90;;;;;;5031508;28;20818;-77
2022/05/11 01:45:32;;;;;;;3.30;2.10;;;18.40;99.90;;;;;;5034023;28;20493;-77
2022/05/11 01:47:58;;;;;;;3.07;2.37;;;18.50;99.90;;;;;;5028614;28;20453;-77
2022/05/11 01:50:28;;;;;;;3.80;1.93;;;18.50;99.90;;;;;;5034014;28;20459;-77
2022/05/11 01:52:55;;;;;;;2.00;1.80;;;18.50;99.90;;;;;;5031258;28;20491;-77
2022/05/11 01:55:21;;;;;;;15.67;2.73;;;18.50;99.90;;;;;;5032383;28;20462;-77
2022/05/11 01:57:50;;;;;;;4.20;2.67;;;18.40;99.90;;;;;;5029149;28;20457;-77
2022/05/11 02:00:18;;;;;;;10.20;3.57;;;18.40;99.90;;;;;;5031271;28;20463;-77
2022/05/11 02:02:45;;;;;;;12.53;2.97;;;18.40;99.90;;;;;;5032781;28;20513;-77
2022/05/11 02:08:00;;;;;;;4.90;2.30;;;18.30;99.90;;;;;;5031537;28;20460;-77
2022/05/11 02:10:28;;;;;;;5.70;2.20;;;18.40;99.90;;;;;;5037633;28;20464;-77
2022/05/11 02:13:00;;;;;;;2.33;2.10;;;18.50;99.90;;;;;;5027283;28;20488;-77
2022/05/11 02:15:27;;;;;;;10.60;3.17;;;18.50;99.90;;;;;;5037539;28;20460;-77
2022/05/11 02:17:55;;;;;;;4.17;2.50;;;18.60;99.90;;;;;;5033032;28;20464;-77
2022/05/11 02:20:23;;;;;;;2.30;1.90;;;18.50;99.90;;;;;;5032771;28;20456;-77
2022/05/11 02:22:56;;;;;;;4.67;2.30;;;18.40;99.90;;;;;;5030389;28;20853;-77
2022/05/11 02:25:24;;;;;;;3.40;2.63;;;18.50;99.90;;;;;;5033174;28;20484;-77
2022/05/11 02:27:54;;;;;;;6.00;2.20;;;18.40;99.90;;;;;;5031592;28;20475;-77
2022/05/11 02:30:29;;;;;;;4.10;1.97;;;18.30;99.90;;;;;;5031861;28;20468;-77
2022/05/11 02:32:57;;;;;;;4.07;1.97;;;18.40;99.90;;;;;;5033308;28;20456;-77
2022/05/11 02:35:29;;;;;;;5.20;1.97;;;18.40;99.90;;;;;;5034130;28;20502;-77
2022/05/11 02:37:59;;;;;;;3.93;1.93;;;18.40;99.90;;;;;;5031583;28;20980;-77
2022/05/11 02:40:28;;;;;;;4.43;2.77;;;18.30;99.90;;;;;;5031327;28;20459;-77
2022/05/11 02:43:01;;;;;;;2.80;2.33;;;18.20;99.90;;;;;;5034477;28;20467;-77
2022/05/11 02:45:31;;;;;;;5.20;2.73;;;18.20;99.90;;;;;;5032026;28;20582;-77
2022/05/11 02:47:58;;;;;;;3.50;1.97;;;18.20;99.90;;;;;;5030869;28;20468;-77
2022/05/11 02:50:30;;;;;;;4.40;2.03;;;18.40;99.90;;;;;;5031331;28;20567;-77
2022/05/11 02:52:57;;;;;;;2.90;2.30;;;18.30;99.90;;;;;;5021420;28;20451;-77
2022/05/11 02:55:24;;;;;;;2.50;2.30;;;18.30;99.90;;;;;;5022513;28;21432;-76
2022/05/11 02:57:52;;;;;;;3.70;2.50;;;18.20;99.90;;;;;;5025796;28;20533;-77
2022/05/11 03:00:20;;;;;;;2.90;1.97;;;18.20;99.90;;;;;;5028503;28;20487;-76
2022/05/11 03:02:48;;;;;;;3.77;3.17;;;18.30;99.90;;;;;;5028109;28;20833;-77
2022/05/11 03:05:16;;;;;;;2.13;1.93;;;18.40;99.90;;;;;;5031043;28;20460;-76
2022/05/11 03:07:47;;;;;;;3.07;2.30;;;18.30;99.90;;;;;;5021492;28;20873;-76
2022/05/11 03:10:22;;;;;;;5.50;1.93;;;18.30;99.90;;;;;;5033026;28;20898;-76
2022/05/11 03:12:49;;;;;;;4.27;3.87;;;18.20;99.90;;;;;;5036390;28;20463;-76
2022/05/11 03:15:17;;;;;;;4.40;2.73;;;18.30;99.90;;;;;;5033986;28;20483;-76
2022/05/11 03:17:44;;;;;;;4.00;2.70;;;18.30;99.90;;;;;;5026997;28;20459;-76
2022/05/11 03:20:13;;;;;;;3.33;2.50;;;18.30;99.90;;;;;;5035112;28;20591;-76
2022/05/11 03:22:42;;;;;;;3.83;2.60;;;18.20;99.90;;;;;;5026050;28;21326;-77
2022/05/11 03:25:10;;;;;;;3.33;2.40;;;18.30;99.90;;;;;;5037127;28;20517;-77
2022/05/11 03:27:36;;;;;;;2.87;2.27;;;18.20;99.90;;;;;;5024666;28;20950;-78
2022/05/11 03:30:04;;;;;;;6.80;2.83;;;18.00;99.90;;;;;;5027145;28;20459;-77
2022/05/11 03:35:17;;;;;;;2.63;2.37;;;18.00;99.90;;;;;;5041341;28;20564;-76
2022/05/11 03:37:46;;;;;;;3.93;3.13;;;18.10;99.90;;;;;;5031459;28;21000;-76
2022/05/11 03:40:13;;;;;;;4.37;2.40;;;18.10;99.90;;;;;;5017058;28;20452;-76
2022/05/11 03:42:44;;;;;;;2.70;2.20;;;18.10;99.90;;;;;;5025522;28;20467;-77
2022/05/11 03:45:12;;;;;;;2.93;2.20;;;18.10;99.90;;;;;;5028145;28;20492;-77
2022/05/11 03:47:39;;;;;;;4.13;2.90;;;18.20;99.90;;;;;;5023343;28;20516;-78
2022/05/11 03:50:11;;;;;;;6.57;2.60;;;18.20;99.90;;;;;;5024481;28;20471;-77
2022/05/11 03:52:40;;;;;;;6.47;2.63;;;18.20;99.90;;;;;;5029515;28;20465;-78
2022/05/11 03:55:10;;;;;;;4.20;2.57;;;18.20;99.90;;;;;;5032758;28;20460;-77
2022/05/11 03:57:38;;;;;;;3.10;2.27;;;18.10;99.90;;;;;;5047076;28;20467;-76
2022/05/11 04:00:08;;;;;;;4.73;2.57;;;18.20;99.90;;;;;;5040664;28;20454;-76
2022/05/11 04:02:35;;;;;;;6.57;3.00;;;18.20;99.90;;;;;;5021589;28;20610;-77
2022/05/11 04:05:03;;;;;;;2.73;2.10;;;18.10;99.90;;;;;;5030367;28;20468;-76
2022/05/11 04:07:30;;;;;;;3.70;3.20;;;18.00;99.90;;;;;;5027576;28;20527;-76
2022/05/11 04:09:58;;;;;;;9.70;3.13;;;18.00;99.90;;;;;;5020789;28;21480;-76
2022/05/11 04:12:30;;;;;;;6.63;3.10;;;18.10;99.90;;;;;;5035573;28;22786;-76
2022/05/11 04:14:57;;;;;;;12.47;3.50;;;18.10;99.90;;;;;;5022138;28;20453;-76
2022/05/11 04:17:24;;;;;;;5.03;3.97;;;18.10;99.90;;;;;;5031680;28;20874;-77
2022/05/11 04:19:51;;;;;;;3.30;2.30;;;18.20;99.90;;;;;;5035431;28;20509;-77
2022/05/11 04:22:18;;;;;;;6.83;2.93;;;18.20;99.90;;;;;;5038448;28;20707;-76
2022/05/11 04:24:57;;;;;;;10.37;3.33;;;18.10;99.90;;;;;;5031052;28;20830;-77
2022/05/11 04:27:24;;;;;;;3.93;2.23;;;18.20;99.90;;;;;;5037251;28;20492;-77
2022/05/11 04:29:53;;;;;;;5.10;2.67;;;18.30;99.90;;;;;;5036824;28;20452;-76
2022/05/11 04:32:19;;;;;;;4.27;2.50;;;18.40;99.90;;;;;;5037154;28;20485;-76
2022/05/11 04:34:50;;;;;;;10.23;2.70;;;18.30;99.90;;;;;;5027234;28;20465;-77
2022/05/11 04:37:16;;;;;;;7.83;2.47;;;18.40;99.90;;;;;;5026702;28;20457;-76
2022/05/11 04:39:51;;;;;;;3.40;2.50;;;18.40;99.90;;;;;;5035687;28;20542;-76
2022/05/11 04:42:23;;;;;;;4.50;3.23;;;18.60;99.90;;;;;;5036239;28;20919;-76
2022/05/11 04:44:55;;;;;;;4.27;2.50;;;18.50;99.90;;;;;;5036184;28;20948;-77
2022/05/11 04:47:22;;;;;;;3.10;2.30;;;18.60;99.90;;;;;;5035785;28;20485;-77
2022/05/11 04:49:54;;;;;;;4.03;2.60;;;18.60;99.90;;;;;;5041681;28;20457;-77
2022/05/11 04:52:25;;;;;;;4.03;2.40;;;18.70;99.90;;;;;;5036504;28;20480;-77
2022/05/11 04:54:52;;;;;;;3.83;2.20;;;18.70;99.90;;;;;;5034517;28;20463;-77
2022/05/11 04:57:24;;;;;;;4.13;2.60;;;18.70;99.90;;;;;;5026715;28;20954;-77
2022/05/11 04:59:51;;;;;;;5.20;2.80;;;18.50;99.90;;;;;;5036457;28;20504;-77
2022/05/11 05:02:21;;;;;;;2.43;2.20;;;18.50;99.90;;;;;;5040624;28;20486;-77
2022/05/11 05:04:49;;;;;;;2.80;2.10;;;18.40;99.90;;;;;;5035348;28;20464;-77
2022/05/11 05:07:16;;;;;;;4.00;2.27;;;18.40;99.90;;;;;;5032898;28;20492;-76
2022/05/11 05:09:45;;;;;;;4.27;3.23;;;18.40;99.90;;;;;;5041902;28;20453;-76
2022/05/11 05:12:13;;;;;;;4.70;3.80;;;18.50;99.90;;;;;;5038949;28;20487;-76
2022/05/11 05:14:42;;;;;;;4.33;2.87;;;18.50;99.90;;;;;;5036447;28;20460;-76
2022/05/11 05:17:14;;;;;;;2.80;2.10;;;18.50;99.90;;;;;;5038746;28;20522;-76
2022/05/11 05:19:51;;;;;;;3.30;2.33;;;18.50;99.90;;;;;;5041063;28;20492;-75
2022/05/11 05:22:17;;;;;;;3.27;2.63;;;18.80;99.90;;;;;;5033824;28;21237;-75
2022/05/11 05:24:49;;;;;;;5.70;2.70;;;19.40;99.90;;;;;;5040206;28;20457;-76
2022/05/11 05:27:20;;;;;;;2.93;2.67;;;19.80;99.90;;;;;;5039765;28;20480;-76
2022/05/11 05:32:46;;;;;;;18.07;2.23;;;19.80;99.90;;;;;;5045398;28;20491;-75
2022/05/11 05:35:22;;;;;;;5.00;2.67;;;19.90;99.90;;;;;;5038900;28;20465;-76
2022/05/11 05:37:48;;;;;;;3.57;2.57;;;20.10;99.90;;;;;;5039449;28;20457;-76
2022/05/11 05:40:15;;;;;;;6.00;2.80;;;20.50;99.90;;;;;;5031283;28;20547;-77
2022/05/11 05:42:43;;;;;;;2.73;2.00;;;21.10;99.90;;;;;;5066474;22;20492;-76
2022/05/11 05:45:12;;;;;;;2.80;2.40;;;21.10;99.90;;;;;;5044830;28;20457;-76
2022/05/11 05:47:39;;;;;;;3.83;2.37;;;21.10;99.90;;;;;;5046700;28;20477;-76
2022/05/11 05:50:07;;;;;;;4.60;2.67;;;21.00;99.90;;;;;;5035560;28;20472;-74
2022/05/11 05:52:34;;;;;;;3.20;2.30;;;21.00;99.90;;;;;;5014232;28;20506;-74
2022/05/11 05:55:01;;;;;;;6.70;2.33;;;20.90;99.90;;;;;;5022424;28;20679;-77
2022/05/11 05:57:28;;;;;;;5.50;2.40;;;20.90;99.90;;;;;;5020700;28;20967;-75
2022/05/11 05:59:55;;;;;;;4.73;2.23;;;20.90;99.90;;;;;;5020234;28;20881;-76
2022/05/11 06:02:23;;;;;;;6.47;2.50;;;20.70;99.90;;;;;;5020713;28;20817;-74
2022/05/11 06:04:51;;;;;;;18.10;3.80;;;20.70;99.90;;;;;;5022433;28;20449;-75
2022/05/11 06:07:21;;;;;;;4.30;2.97;;;20.70;99.90;;;;;;5013408;28;20968;-77
2022/05/11 06:09:48;;;;;;;6.50;3.50;;;20.70;99.90;;;;;;5025299;28;20495;-75
2022/05/11 06:12:16;;;;;;;7.73;2.57;;;20.90;99.90;;;;;;5023429;28;20477;-74
2022/05/11 06:14:43;;;;;;;4.07;2.43;;;21.10;99.90;;;;;;5024097;28;20476;-76
2022/05/11 06:17:15;;;;;;;10.20;3.00;;;21.70;99.90;;;;;;5025897;28;20461;-76
2022/05/11 06:19:43;;;;;;;6.67;1.97;;;22.30;99.90;;;;;;5030575;28;20514;-77
2022/05/11 06:22:10;;;;;;;4.97;2.77;;;23.00;99.90;;;;;;5019705;28;20485;-77
2022/05/11 06:24:36;;;;;;;11.73;3.03;;;23.50;99.90;;;;;;5023435;28;20464;-77
2022/05/11 06:27:03;;;;;;;4.00;3.20;;;23.60;99.90;;;;;;5019211;28;20496;-77
2022/05/11 06:29:30;;;;;;;2.60;2.40;;;24.40;99.90;;;;;;5018412;28;20453;-77
2022/05/11 06:31:57;;;;;;;3.87;2.73;;;24.60;99.90;;;;;;5024077;28;20538;-77
2022/05/11 06:34:24;;;;;;;3.90;2.47;;;25.30;99.90;;;;;;5023813;28;20465;-76
2022/05/11 06:36:52;;;;;;;9.13;2.60;;;25.40;99.90;;;;;;5016324;28;20459;-75
2022/05/11 06:39:19;;;;;;;6.33;3.33;;;25.40;99.90;;;;;;5020387;28;21077;-76
2022/05/11 06:41:46;;;;;;;4.60;2.60;;;25.10;99.90;;;;;;5021454;28;20498;-77
2022/05/11 06:44:13;;;;;;;6.97;2.40;;;25.20;99.90;;;;;;5020214;28;20474;-77
2022/05/11 06:46:40;;;;;;;3.87;2.40;;;25.60;99.90;;;;;;5024569;28;20540;-76
2022/05/11 06:49:06;;;;;;;3.23;2.50;;;26.10;98.00;;;;;;5017750;28;20792;-77
2022/05/11 06:51:33;;;;;;;5.30;4.00;;;26.30;97.60;;;;;;5017142;28;20486;-76
2022/05/11 06:59:33;;;;;;;3.90;3.10;;;26.90;95.90;;;;;;5028638;28;21361;-74
2022/05/11 07:02:03;;;;;;;5.67;3.27;;;26.60;96.20;;;;;;5024514;28;20652;-76
2022/05/11 07:04:33;;;;;;;6.73;4.33;;;26.70;96.60;;;;;;5022871;28;20568;-75
2022/05/11 07:07:00;;;;;;;5.70;4.17;;;26.70;95.90;;;;;;5020963;28;20505;-74
2022/05/11 07:09:32;;;;;;;4.40;3.33;;;26.60;95.60;;;;;;5025598;28;20469;-74
2022/05/11 07:12:18;;;;;;;7.83;3.63;;;26.70;96.20;;;;;;5026849;28;20489;-74
2022/05/11 07:14:44;;;;;;;7.67;3.83;;;26.70;96.60;;;;;;5029173;28;20470;-76
2022/05/11 07:17:12;;;;;;;5.13;4.30;;;26.80;95.30;;;;;;5024225;28;20462;-76
2022/05/11 07:19:42;;;;;;;7.10;4.50;;;27.10;95.00;;;;;;5025502;28;20533;-74
2022/05/11 07:22:08;;;;;;;4.70;3.50;;;27.40;94.70;;;;;;5027708;28;21045;-75
2022/05/11 07:24:36;;;;;;;3.93;3.60;;;27.50;94.50;;;;;;5024312;28;20466;-75
2022/05/11 07:27:04;;;;;;;6.60;4.40;;;27.60;93.10;;;;;;5017457;28;20596;-75
2022/05/11 07:29:30;;;;;;;3.97;3.67;;;27.10;93.40;;;;;;5023851;28;20466;-76
2022/05/11 07:31:57;;;;;;;8.53;3.67;;;26.90;93.60;;;;;;5026581;28;20563;-75
2022/05/11 07:34:24;;;;;;;9.10;5.27;;;26.30;94.70;;;;;;5020257;28;20474;-76
2022/05/11 07:36:54;;;;;;;4.60;4.20;;;25.70;95.60;;;;;;5023353;28;20455;-75
2022/05/11 07:39:21;;;;;;;4.43;4.03;;;25.50;96.60;;;;;;5024718;28;20467;-75
2022/05/11 07:41:49;;;;;;;8.40;4.90;;;25.70;96.30;;;;;;5025213;28;20516;-77
2022/05/11 07:44:16;;;;;;;6.77;4.43;;;26.20;95.60;;;;;;5029253;28;20500;-76
2022/05/11 07:46:43;;;;;;;9.20;5.20;;;26.50;94.60;;;;;;5023760;28;20462;-76
2022/05/11 07:49:10;;;;;;;10.00;5.97;;;26.40;94.80;;;;;;5024696;28;20818;-77
2022/05/11 07:51:37;;;;;;;4.33;3.80;;;26.20;95.00;;;;;;5024111;28;20544;-76
2022/05/11 07:54:05;;;;;;;6.93;3.73;;;26.30;94.90;;;;;;5026561;28;20465;-76
2022/05/11 08:02:01;;;;;;;3.87;3.43;;;26.70;92.00;;;;;;5013389;28;20845;-76
2022/05/11 08:04:28;;;;;;;3.87;3.47;;;26.80;92.60;;;;;;5023802;28;20508;-76
2022/05/11 08:06:54;;;;;;;8.57;4.30;;;27.50;92.00;;;;;;5026920;28;20462;-75
2022/05/11 08:09:22;;;;;;;4.70;3.33;;;27.70;90.70;;;;;;5023349;28;20473;-76
2022/05/11 08:11:50;;;;;;;3.90;3.00;;;27.80;90.70;;;;;;5022899;28;20901;-74
2022/05/11 08:14:18;;;;;;;5.90;3.50;;;28.20;87.70;;;;;;5023666;28;20462;-77
2022/05/11 08:16:51;;;;;;;6.07;3.80;;;28.20;88.90;;;;;;5026725;28;20528;-75
2022/05/11 08:19:18;;;;;;;5.27;3.20;;;28.80;86.50;;;;;;5017968;28;20564;-75
2022/05/11 08:21:46;;;;;;;5.73;4.23;;;28.40;86.80;;;;;;5028041;28;20477;-75
2022/05/11 08:24:13;;;;;;;5.93;3.03;;;28.50;85.60;;;;;;5026016;28;20455;-76
2022/05/11 08:26:41;;;;;;;4.60;3.63;;;28.50;89.40;;;;;;5022971;28;20466;-75
2022/05/11 08:29:09;;;;;;;8.90;3.50;;;28.70;85.50;;;;;;5021743;28;21428;-76
2022/05/11 08:34:21;;;;;;;6.97;3.50;;;28.10;87.40;;;;;;5017328;28;20469;-75
2022/05/11 08:36:48;;;;;;;7.43;3.37;;;28.20;86.80;;;;;;5027421;28;20996;-76
2022/05/11 08:39:15;;;;;;;4.57;3.33;;;28.70;86.60;;;;;;5023465;28;20462;-75
2022/05/11 08:41:47;;;;;;;5.60;3.43;;;28.80;83.70;;;;;;5021788;28;20485;-75
2022/05/11 08:44:16;;;;;;;4.57;3.07;;;28.80;83.80;;;;;;5023319;28;20546;-75
2022/05/11 08:46:57;;;;;;;5.00;2.50;;;28.80;83.40;;;;;;5025821;28;20475;-74
2022/05/11 08:49:40;;;;;;;5.20;3.37;;;28.80;83.40;;;;;;5022024;28;20469;-76
2022/05/11 08:52:16;;;;;;;22.93;3.63;;;29.40;80.90;;;;;;5037007;28;20510;-75
2022/05/11 08:54:48;;;;;;;3.57;2.70;;;30.10;82.00;;;;;;5028726;28;20521;-75
2022/05/11 08:57:18;;;;;;;7.30;3.90;;;30.50;77.90;;;;;;5031018;28;20915;-75
2022/05/11 08:59:46;;;;;;;5.90;3.67;;;30.10;77.90;;;;;;5028083;28;20465;-76
2022/05/11 09:02:19;;;;;;;5.60;3.00;;;29.80;79.10;;;;;;5020650;28;20961;-75
2022/05/11 09:04:49;;;;;;;3.70;2.20;;;29.40;78.60;;;;;;5021977;28;20463;-75
2022/05/11 09:07:17;;;;;;;4.97;2.60;;;29.10;79.10;;;;;;5017544;28;20462;-76
2022/05/11 09:09:44;;;;;;;2.73;2.20;;;29.40;79.20;;;;;;5024196;28;20492;-75
2022/05/11 09:12:12;;;;;;;3.80;2.30;;;29.60;78.30;;;;;;5023736;28;20494;-76
2022/05/11 09:14:40;;;;;;;4.57;2.67;;;29.60;76.90;;;;;;5023243;28;20926;-76
2022/05/11 09:17:23;;;;;;;2.40;1.60;;;29.80;77.60;;;;;;5021726;28;20542;-75
2022/05/11 09:20:02;;;;;;;3.80;2.43;;;29.10;77.30;;;;;;5018355;28;20528;-76
2022/05/11 09:22:31;;;;;;;2.60;2.17;;;29.50;77.10;;;;;;5019264;28;20498;-75
2022/05/11 09:25:00;;;;;;;2.93;2.30;;;29.80;74.70;;;;;;5025580;28;20479;-75
2022/05/11 09:27:29;;;;;;;2.53;1.87;;;29.40;77.20;;;;;;5026801;28;20465;-76
2022/05/11 09:30:01;;;;;;;2.83;2.30;;;29.30;75.20;;;;;;5019950;28;20458;-75
2022/05/11 09:32:33;;;;;;;2.53;2.23;;;28.90;77.20;;;;;;5021376;28;20491;-74
2022/05/11 09:35:19;;;;;;;2.50;2.10;;;29.50;74.70;;;;;;5015916;28;20501;-75
2022/05/11 09:37:56;;;;;;;3.00;2.30;;;29.50;76.10;;;;;;5028735;28;20515;-76
2022/05/11 09:40:23;;;;;;;3.90;2.30;;;30.00;74.40;;;;;;5021229;28;20458;-75
2022/05/11 09:42:52;;;;;;;2.47;1.90;;;30.80;74.80;;;;;;5022513;28;20954;-75
2022/05/11 09:45:40;;;;;;;3.83;2.53;;;30.90;71.70;;;;;;5021646;28;20467;-76
2022/05/11 09:48:24;;;;;;;2.13;1.93;;;30.90;73.30;;;;;;5018427;28;20478;-75
2022/05/11 09:50:54;;;;;;;4.27;2.97;;;31.00;71.50;;;;;;5021693;28;20468;-75
2022/05/11 09:53:29;;;;;;;4.30;2.80;;;31.40;71.90;;;;;;5019313;28;20458;-76
2022/05/11 09:55:56;;;;;;;4.23;1.97;;;31.20;71.60;;;;;;5019888;28;20469;-75
2022/05/11 09:58:30;;;;;;;3.47;2.87;;;31.20;69.10;;;;;;5023395;28;20542;-75
2022/05/11 10:01:10;;;;;;;2.20;2.00;;;30.80;68.60;;;;;;5018877;28;21003;-75
2022/05/11 10:03:43;;;;;;;13.33;2.53;;;30.70;68.40;;;;;;5017535;28;20462;-74
2022/05/11 10:06:12;;;;;;;2.40;2.03;;;30.50;67.80;;;;;;5021650;28;20462;-75
2022/05/11 10:08:43;;;;;;;2.33;2.13;;;29.50;69.70;;;;;;5021481;28;21042;-76
2022/05/11 10:11:16;;;;;;;2.40;2.17;;;29.30;71.20;;;;;;5021350;28;20627;-75
2022/05/11 10:13:47;;;;;;;2.40;2.20;;;29.50;70.60;;;;;;5020352;28;20921;-74
2022/05/11 10:22:01;;;;;;;3.37;2.87;;;31.10;67.40;;;;;;5019002;28;20487;-76
2022/05/11 10:24:38;;;;;;;5.40;2.90;;;30.80;68.30;;;;;;5012779;28;20477;-77
2022/05/11 10:27:13;;;;;;;4.97;2.73;;;31.60;67.30;;;;;;5021080;28;20490;-74
2022/05/11 10:29:56;;;;;;;4.50;2.10;;;30.90;67.00;;;;;;5021961;28;20501;-75
2022/05/11 10:32:32;;;;;;;3.43;2.50;;;31.20;66.40;;;;;;5016095;28;20873;-75
2022/05/11 10:35:07;;;;;;;4.30;3.20;;;30.70;66.40;;;;;;5018217;28;20958;-75
2022/05/11 10:37:39;;;;;;;6.20;3.03;;;30.70;68.00;;;;;;5020527;28;20470;-75
2022/05/11 10:40:24;;;;;;;11.27;2.60;;;31.20;66.00;;;;;;5021780;28;20972;-76
2022/05/11 10:43:05;;;;;;;2.60;2.40;;;31.80;66.50;;;;;;5017347;28;21089;-76
2022/05/11 10:45:43;;;;;;;5.60;3.17;;;31.80;63.80;;;;;;5009020;28;20540;-75
2022/05/11 10:48:22;;;;;;;4.27;2.80;;;30.60;66.20;;;;;;5024768;28;20534;-75
2022/05/11 10:50:57;;;;;;;5.20;2.43;;;30.10;67.10;;;;;;5021922;28;20472;-74
2022/05/11 10:53:39;;;;;;;3.53;3.10;;;29.70;68.00;;;;;;5017513;28;20461;-75
2022/05/11 10:56:26;;;;;;;2.77;2.57;;;30.00;68.80;;;;;;5022450;28;20467;-73
2022/05/11 10:59:15;;;;;;;2.63;2.37;;;30.60;67.00;;;;;;5018320;28;20482;-75
2022/05/11 11:01:50;;;;;;;4.90;2.70;;;31.20;66.90;;;;;;5020763;28;20487;-75
2022/05/11 11:04:37;;;;;;;2.87;2.27;;;31.00;66.00;;;;;;5015962;28;20477;-77
2022/05/11 11:07:17;;;;;;;3.10;2.30;;;30.90;65.50;;;;;;5020758;28;20521;-73
2022/05/11 11:10:23;;;;;;;2.83;2.40;;;31.00;64.90;;;;;;5021170;28;20490;-75
2022/05/11 11:13:22;;;;;;;2.00;1.80;;;31.70;65.50;;;;;;5013869;28;20494;-76
2022/05/11 11:15:51;;;;;;;6.13;2.27;;;32.20;63.80;;;;;;5016571;28;20498;-75
2022/05/11 11:18:23;;;;;;;4.80;2.83;;;32.30;63.10;;;;;;5019620;28;20451;-75
2022/05/11 11:20:51;;;;;;;3.40;2.70;;;31.40;63.40;;;;;;5018715;28;20477;-75
2022/05/11 11:23:36;;;;;;;12.80;3.43;;;31.00;63.60;;;;;;5021282;28;20459;-76
2022/05/11 11:26:06;;;;;;;6.60;2.53;;;31.60;63.20;;;;;;5015727;28;20485;-76
2022/05/11 11:28:34;;;;;;;4.03;3.13;;;31.80;61.40;;;;;;5020827;28;20486;-75
2022/05/11 11:31:21;;;;;;;6.40;2.57;;;31.50;62.80;;;;;;5010861;28;20958;-74
2022/05/11 11:34:22;;;;;;;5.67;2.97;;;31.20;61.60;;;;;;5019925;28;20636;-75
2022/05/11 11:36:50;;;;;;;6.50;2.53;;;31.10;62.80;;;;;;5021293;28;20466;-75
2022/05/11 11:39:56;;;;;;;3.30;2.63;;;31.50;62.70;;;;;;5020510;28;20469;-75
2022/05/11 11:42:36;;;;;;;3.77;2.90;;;32.00;60.50;;;;;;5051635;22;20567;-76
2022/05/11 11:45:05;;;;;;;6.00;2.43;;;31.00;62.00;;;;;;5061783;28;20981;-77
2022/05/11 11:47:42;;;;;;;2.43;2.23;;;30.80;62.40;;;;;;5060500;28;20456;-76
2022/05/11 11:50:12;;;;;;;3.97;2.73;;;30.90;62.10;;;;;;5060871;28;20504;-75
2022/05/11 11:52:43;;;;;;;5.70;2.83;;;30.40;62.40;;;;;;5060971;28;20484;-77
2022/05/11 11:55:26;;;;;;;2.70;2.50;;;30.10;62.30;;;;;;5063244;28;20473;-77
2022/05/11 11:57:57;;;;;;;4.33;2.60;;;30.60;61.50;;;;;;5067670;28;20515;-77
2022/05/11 12:00:56;;;;;;;8.87;3.77;;;31.50;62.20;;;;;;5057467;28;20461;-77
2022/05/11 12:03:26;;;;;;;4.50;2.30;;;32.70;59.20;;;;;;5055387;28;20481;-76
2022/05/11 12:15:01;;;;;;;3.70;3.03;;;33.00;57.90;;;;;;5064796;28;20523;-77
2022/05/11 12:17:10;;;;;;;4.33;2.83;;;32.20;57.10;;;;;;5060962;28;20503;-76
2022/05/11 12:19:38;;;;;;;7.63;2.00;;;32.60;57.20;;;;;;5059573;28;20535;-75
2022/05/11 12:22:12;;;;;;;2.97;2.37;;;33.30;55.80;;;;;;5071072;28;20481;-77
2022/05/11 12:24:43;;;;;;;3.00;2.30;;;33.60;57.30;;;;;;5069091;28;20543;-76
2022/05/11 12:27:13;;;;;;;3.13;2.63;;;33.50;55.70;;;;;;5067715;28;20466;-77
2022/05/11 12:29:59;;;;;;;6.00;2.23;;;33.60;55.90;;;;;;5068468;28;20583;-76
2022/05/11 12:32:28;;;;;;;6.33;2.17;;;34.00;54.20;;;;;;5064490;28;20490;-77
2022/05/11 12:34:55;;;;;;;14.80;2.73;;;34.30;53.00;;;;;;5062165;28;20461;-77
2022/05/11 12:37:24;;;;;;;13.70;2.90;;;33.30;51.70;;;;;;5062284;28;20461;-77
2022/05/11 12:39:56;;;;;;;19.90;3.27;;;31.70;51.40;;;;;;5059776;28;20927;-76
2022/05/11 12:42:37;;;;;;;10.30;2.83;;;31.50;52.10;;;;;;5064101;28;20515;-76
2022/05/11 12:45:06;;;;;;;8.30;2.73;;;32.20;53.30;;;;;;5054092;28;20461;-76
2022/05/11 12:47:33;;;;;;;2.90;2.07;;;32.20;52.20;;;;;;5063359;28;20464;-78
2022/05/11 12:50:00;;;;;;;7.33;4.57;;;31.90;52.20;;;;;;5052711;28;21013;-77
2022/05/11 12:52:28;;;;;;;4.80;2.20;;;32.00;51.70;;;;;;5056053;28;20531;-76
2022/05/11 12:54:58;;;;;;;13.03;2.87;;;32.70;51.40;;;;;;5057465;28;20464;-77
2022/05/11 12:57:25;;;;;;;5.33;1.83;;;33.00;51.00;;;;;;5057683;28;20461;-76
2022/05/11 12:59:56;;;;;;;6.73;2.13;;;33.50;49.80;;;;;;5050036;28;20624;-76
2022/05/11 13:02:27;;;;;;;11.27;3.00;;;32.40;50.00;;;;;;5062731;28;20551;-75
2022/05/11 13:04:57;;;;;;;3.07;2.20;;;32.10;50.70;;;;;;5065608;28;21027;-77
2022/05/11 13:07:26;;;;;;;4.70;1.90;;;32.50;50.60;;;;;;5054917;28;20541;-77
2022/05/11 13:09:57;;;;;;;5.47;1.90;;;32.10;50.70;;;;;;5066105;28;20939;-76
2022/05/11 13:12:27;;;;;;;9.10;2.60;;;32.40;51.50;;;;;;5063691;28;20530;-76
2022/05/11 13:14:58;;;;;;;5.63;3.20;;;32.70;51.00;;;;;;5058613;28;21376;-77
2022/05/11 13:17:31;;;;;;;3.83;2.77;;;32.60;51.70;;;;;;5057678;28;20858;-77
2022/05/11 13:20:00;;;;;;;7.10;2.40;;;32.30;51.90;;;;;;5067681;28;20460;-76
2022/05/11 13:22:29;;;;;;;15.17;2.53;;;32.40;51.60;;;;;;5055498;28;20485;-77
2022/05/11 13:24:59;;;;;;;3.57;2.40;;;32.90;53.20;;;;;;5061510;28;20460;-76
2022/05/11 13:27:33;;;;;;;4.53;3.07;;;33.20;51.10;;;;;;5061591;28;20938;-77
2022/05/11 13:30:20;;;;;;;3.47;2.00;;;33.50;51.10;;;;;;5061172;28;20491;-78
2022/05/11 13:32:50;;;;;;;2.60;2.00;;;32.90;51.20;;;;;;5070759;28;20484;-77
2022/05/11 13:35:27;;;;;;;3.43;1.93;;;32.60;51.70;;;;;;5059035;28;20458;-75
2022/05/11 13:37:57;;;;;;;3.53;2.50;;;32.20;52.40;;;;;;5062355;28;20886;-76
2022/05/11 13:40:28;;;;;;;5.73;2.57;;;32.20;52.40;;;;;;5063001;28;20546;-77
2022/05/11 13:42:55;;;;;;;4.60;2.10;;;32.60;53.00;;;;;;5062996;28;20522;-76
2022/05/11 13:45:24;;;;;;;6.33;2.63;;;32.70;52.70;;;;;;5061289;28;20912;-75